Hovedside
METAR-TAF:

METAR-TAF

Lufthavner :

Esmeraldas, Ecuador

breddegrad: 00-58-43N, lengdegrad: 079-37-36W, høyde over havet: 10 m

Gjeldene værobservasjon

Denne rapporten ble laget for 30 minutter siden, klokken 15:00 UTC
Vind 3 kt fra Sørvest, skiftende mellom Sør og Vest-sørvest
Temperatur 28°C
Luftfuktighet 94%
Trykk 1012 hPa
Sikt 10 km eller mer
Få skyer i en høyde av 2600 ft
Brutte skyer i en høyde av 10000 ft

METAR: SETN 041500Z 22003KT 180V240 9999 FEW026 BKN100 28/27 Q1012 RMK A2990

Tid: 10:30 (15:30 UTC)


TAF: fraværende

Værobservasjoner og værvarsel for over 4000 flyplasser (METAR- og TAF-rapporter).

Tilgjengelige stasjoner er representert av de røde og gule prikkene på kartet.

Hold musepekeren over prikken for å se navnet på stasjonen.

Klikk så for å se værobservasjoner og -varsler.

For å forandre kartet kan du klikke på den grønne knappen med svart kryss for å zoome inn, på den grønne knappen med strek for å zoome ut, eller på de grønne pilene for å se tilstøtende kart.


METAR-TAF: